Time;durP1;ratioP1;P1;durP2;ratioP2;P2;SDS_P1;SDS_P2;PMS_P1;PMS_P2;Temp;Humidity;BMP_temperature;BMP_pressure;BME280_temperature;BME280_humidity;BME280_pressure;Samples;Min_cycle;Max_cycle;Signal;HPM_P1;HPM_P2
2023/06/19 00:02:18;;;;;;;10.90;4.57;;;20.60;99.90;;;;;;7280886;19;20212;-79
2023/06/19 00:04:43;;;;;;;8.57;4.10;;;20.60;99.90;;;;;;7283237;19;20192;-80
2023/06/19 00:07:09;;;;;;;9.17;3.77;;;20.70;99.90;;;;;;7280603;19;20196;-79
2023/06/19 00:09:35;;;;;;;8.30;4.23;;;20.70;99.90;;;;;;7280675;19;20234;-79
2023/06/19 00:12:01;;;;;;;8.43;4.43;;;20.60;99.90;;;;;;7282942;19;20200;-78
2023/06/19 00:14:27;;;;;;;10.60;3.90;;;20.60;99.90;;;;;;7280664;19;20545;-78
2023/06/19 00:16:52;;;;;;;10.33;4.50;;;20.50;99.90;;;;;;7302672;19;20184;-79
2023/06/19 00:19:18;;;;;;;11.60;4.40;;;20.40;99.90;;;;;;7281446;19;20192;-79
2023/06/19 00:21:44;;;;;;;10.47;4.53;;;20.40;99.90;;;;;;7280519;19;26077;-79
2023/06/19 00:24:10;;;;;;;11.87;4.00;;;20.40;99.90;;;;;;7280842;19;20220;-79
2023/06/19 00:26:36;;;;;;;8.87;4.30;;;20.20;99.90;;;;;;7280703;19;20184;-78
2023/06/19 00:29:02;;;;;;;10.97;4.37;;;20.00;99.90;;;;;;7280960;19;20224;-79
2023/06/19 00:31:28;;;;;;;9.03;4.13;;;19.90;99.90;;;;;;7280487;19;20192;-79
2023/06/19 00:33:54;;;;;;;8.37;3.90;;;19.70;99.90;;;;;;7304056;19;20204;-80
2023/06/19 00:36:21;;;;;;;9.23;4.20;;;19.70;99.90;;;;;;7281770;19;20185;-79
2023/06/19 00:38:47;;;;;;;9.97;4.00;;;19.80;99.90;;;;;;7284653;19;20251;-79
2023/06/19 00:41:15;;;;;;;12.70;4.87;;;19.90;99.90;;;;;;7288051;19;20190;-80
2023/06/19 00:43:42;;;;;;;9.03;4.00;;;20.00;99.90;;;;;;7289389;19;20185;-79
2023/06/19 00:46:08;;;;;;;9.10;4.07;;;20.00;99.90;;;;;;7288993;19;20191;-79
2023/06/19 00:48:34;;;;;;;11.27;3.97;;;20.00;99.90;;;;;;7287990;19;20188;-79
2023/06/19 00:51:00;;;;;;;9.37;4.20;;;20.00;99.90;;;;;;7289180;19;20187;-80
2023/06/19 00:53:26;;;;;;;11.43;3.93;;;20.00;99.90;;;;;;7293611;19;20181;-79
2023/06/19 00:55:54;;;;;;;9.87;4.40;;;20.00;99.90;;;;;;7309415;19;20198;-80
2023/06/19 00:58:21;;;;;;;8.93;4.17;;;20.00;99.90;;;;;;7289159;19;20181;-80
2023/06/19 01:00:47;;;;;;;8.93;3.90;;;20.10;99.90;;;;;;7286470;19;20962;-79
2023/06/19 01:03:14;;;;;;;9.33;4.23;;;20.30;99.90;;;;;;7288126;19;20541;-79
2023/06/19 01:05:39;;;;;;;8.47;4.30;;;20.30;99.90;;;;;;7288024;19;20531;-80
2023/06/19 01:08:24;;;;;;;8.67;4.57;;;20.30;99.90;;;;;;7288019;19;20267;-79
2023/06/19 01:10:56;;;;;;;13.40;4.40;;;20.20;99.90;;;;;;7289463;19;20353;-80
2023/06/19 01:13:41;;;;;;;7.47;3.90;;;20.20;99.90;;;;;;7287887;19;20200;-79
2023/06/19 01:16:07;;;;;;;9.00;4.37;;;20.20;99.90;;;;;;7183425;19;2004982;-79
2023/06/19 01:18:34;;;;;;;9.60;4.97;;;20.20;99.90;;;;;;7287907;19;20185;-79
2023/06/19 01:21:15;;;;;;;10.20;4.70;;;20.20;99.90;;;;;;7286444;19;20656;-78
2023/06/19 01:23:41;;;;;;;10.83;5.10;;;20.20;99.90;;;;;;7288272;19;20223;-80
2023/06/19 01:26:08;;;;;;;13.20;5.10;;;20.20;99.90;;;;;;7286127;19;20263;-79
2023/06/19 01:28:37;;;;;;;10.23;5.07;;;20.10;99.90;;;;;;7285730;19;20640;-79
2023/06/19 01:31:13;;;;;;;14.40;4.63;;;20.20;99.90;;;;;;7284991;19;20202;-79
2023/06/19 01:33:42;;;;;;;12.00;5.27;;;20.30;99.90;;;;;;7285816;19;20198;-79
2023/06/19 01:36:09;;;;;;;10.07;5.13;;;20.30;99.90;;;;;;7287272;19;20652;-79
2023/06/19 01:38:36;;;;;;;11.07;5.33;;;20.30;99.90;;;;;;7287239;19;20196;-79
2023/06/19 01:41:03;;;;;;;9.57;5.27;;;20.30;99.90;;;;;;7286101;19;20188;-80
2023/06/19 01:43:31;;;;;;;9.50;5.50;;;20.40;99.90;;;;;;7285953;19;20203;-79
2023/06/19 01:45:58;;;;;;;11.27;5.60;;;20.30;99.90;;;;;;7285847;19;20651;-79
2023/06/19 01:48:24;;;;;;;10.10;5.70;;;20.30;99.90;;;;;;7309494;19;20196;-79
2023/06/19 01:50:50;;;;;;;11.50;5.63;;;20.30;99.90;;;;;;7287909;19;20248;-79
2023/06/19 01:53:16;;;;;;;9.50;5.90;;;20.30;99.90;;;;;;7285356;19;20192;-79
2023/06/19 01:55:42;;;;;;;9.83;5.43;;;20.30;99.90;;;;;;7284539;19;20192;-78
2023/06/19 01:58:08;;;;;;;11.63;5.27;;;20.30;99.90;;;;;;7286009;19;20193;-79
2023/06/19 02:00:37;;;;;;;12.80;5.40;;;20.30;99.90;;;;;;7284427;19;20256;-79
2023/06/19 02:03:03;;;;;;;10.77;5.67;;;20.30;99.90;;;;;;7285519;19;20207;-79
2023/06/19 02:05:30;;;;;;;11.77;6.17;;;20.40;99.90;;;;;;7286417;19;20189;-79
2023/06/19 02:07:56;;;;;;;13.27;6.40;;;20.40;99.90;;;;;;7294892;19;20672;-79
2023/06/19 02:10:21;;;;;;;10.30;5.93;;;20.40;99.90;;;;;;7304001;19;20181;-79
2023/06/19 02:12:47;;;;;;;15.60;6.70;;;20.50;99.90;;;;;;7286290;19;21062;-79
2023/06/19 02:15:13;;;;;;;11.83;6.33;;;20.50;99.90;;;;;;7285572;19;20192;-79
2023/06/19 02:17:39;;;;;;;17.33;7.00;;;20.60;99.90;;;;;;7285494;19;20280;-79
2023/06/19 02:20:08;;;;;;;10.50;6.97;;;20.50;99.90;;;;;;7284898;19;20226;-79
2023/06/19 02:22:34;;;;;;;11.80;7.47;;;20.50;99.90;;;;;;7285698;19;20196;-80
2023/06/19 02:25:00;;;;;;;12.83;7.90;;;20.40;99.90;;;;;;7284195;19;20626;-79
2023/06/19 02:27:26;;;;;;;15.50;7.70;;;20.40;99.90;;;;;;7293706;19;20276;-78
2023/06/19 02:29:51;;;;;;;11.97;7.60;;;20.40;99.90;;;;;;7306132;19;20193;-79
2023/06/19 02:32:19;;;;;;;14.23;8.77;;;20.30;99.90;;;;;;7291637;19;20184;-80
2023/06/19 02:34:45;;;;;;;15.87;9.53;;;20.30;99.90;;;;;;7290093;19;20205;-79
2023/06/19 02:37:11;;;;;;;15.63;9.40;;;20.30;99.90;;;;;;7289177;19;20199;-78
2023/06/19 02:39:37;;;;;;;14.03;9.07;;;20.30;99.90;;;;;;7283399;19;20273;-78
2023/06/19 02:42:02;;;;;;;17.30;9.37;;;20.30;99.90;;;;;;7285353;19;20248;-78
2023/06/19 02:44:28;;;;;;;15.70;9.77;;;20.40;99.90;;;;;;7285409;19;20648;-78
2023/06/19 02:46:54;;;;;;;17.57;8.67;;;20.50;99.90;;;;;;7307622;19;20189;-79
2023/06/19 02:49:19;;;;;;;13.13;8.93;;;20.60;99.90;;;;;;7282570;19;20195;-80
2023/06/19 02:51:46;;;;;;;17.23;9.20;;;20.60;99.90;;;;;;7285558;19;20202;-79
2023/06/19 02:54:11;;;;;;;15.70;10.20;;;20.60;99.90;;;;;;7282557;19;20210;-80
2023/06/19 02:56:38;;;;;;;15.90;9.90;;;20.60;99.90;;;;;;7284755;19;20603;-79
2023/06/19 02:59:04;;;;;;;16.07;9.77;;;20.50;99.90;;;;;;7283456;19;20651;-79
2023/06/19 03:01:30;;;;;;;18.13;10.00;;;20.50;99.90;;;;;;7281031;19;20733;-79
2023/06/19 03:03:56;;;;;;;15.43;10.17;;;20.50;99.90;;;;;;7296136;19;20188;-78
2023/06/19 03:06:21;;;;;;;15.67;8.83;;;20.50;99.90;;;;;;7303050;19;20868;-80
2023/06/19 03:08:47;;;;;;;14.43;9.47;;;20.50;99.90;;;;;;7283251;19;20614;-79
2023/06/19 03:11:13;;;;;;;15.57;9.47;;;20.50;99.90;;;;;;7285669;19;20197;-79
2023/06/19 03:13:50;;;;;;;12.93;8.80;;;20.60;99.90;;;;;;7283479;19;20192;-79
2023/06/19 03:16:18;;;;;;;13.77;7.23;;;20.60;99.90;;;;;;7285006;19;20192;-79
2023/06/19 03:18:45;;;;;;;13.27;6.80;;;20.60;99.90;;;;;;7283813;19;20255;-80
2023/06/19 03:21:11;;;;;;;10.67;6.10;;;20.60;99.90;;;;;;7281767;19;20191;-79
2023/06/19 03:23:37;;;;;;;11.30;6.47;;;20.50;99.90;;;;;;7284105;19;20185;-80
2023/06/19 03:26:04;;;;;;;11.43;6.60;;;20.40;99.90;;;;;;7283090;19;20195;-80
2023/06/19 03:28:30;;;;;;;11.87;6.23;;;20.40;99.90;;;;;;7283789;19;20223;-79
2023/06/19 03:30:58;;;;;;;12.90;7.37;;;20.50;99.90;;;;;;7283872;19;20185;-79
2023/06/19 03:33:24;;;;;;;14.13;7.17;;;20.50;99.90;;;;;;7304308;19;20184;-80
2023/06/19 03:35:50;;;;;;;11.37;6.40;;;20.50;99.90;;;;;;7284307;19;21033;-80
2023/06/19 03:38:30;;;;;;;13.67;7.20;;;20.50;99.90;;;;;;7180404;19;2004392;-80
2023/06/19 03:40:56;;;;;;;15.23;7.57;;;20.50;99.90;;;;;;7292708;19;20187;-78
2023/06/19 03:43:22;;;;;;;14.53;8.43;;;20.50;99.90;;;;;;7302327;19;20185;-79
2023/06/19 03:45:47;;;;;;;13.47;7.57;;;20.50;99.90;;;;;;7282017;19;20183;-80
2023/06/19 03:48:13;;;;;;;15.13;8.63;;;20.50;99.90;;;;;;7283325;19;20660;-79
2023/06/19 03:50:39;;;;;;;14.67;7.93;;;20.40;99.90;;;;;;7283848;19;20195;-79
2023/06/19 03:53:06;;;;;;;13.83;8.27;;;20.40;99.90;;;;;;7283131;19;20221;-79
2023/06/19 03:55:32;;;;;;;15.03;8.63;;;20.30;99.90;;;;;;7281913;19;20621;-79
2023/06/19 03:57:58;;;;;;;15.30;8.63;;;20.40;99.90;;;;;;7281676;19;20196;-80
2023/06/19 04:00:23;;;;;;;15.83;8.67;;;20.40;99.90;;;;;;7303525;19;20508;-79
2023/06/19 04:02:49;;;;;;;15.13;9.80;;;20.30;99.90;;;;;;7282712;19;20185;-80
2023/06/19 04:05:15;;;;;;;17.40;9.77;;;20.30;99.90;;;;;;7283868;19;20201;-80
2023/06/19 04:07:42;;;;;;;13.70;9.73;;;20.30;99.90;;;;;;7282053;19;20192;-79
2023/06/19 04:10:08;;;;;;;15.33;9.17;;;20.30;99.90;;;;;;7282131;19;20188;-79
2023/06/19 04:12:34;;;;;;;15.57;9.63;;;20.20;99.90;;;;;;7282157;19;20199;-79
2023/06/19 04:15:00;;;;;;;16.10;10.37;;;20.20;99.90;;;;;;7289060;19;20191;-80
2023/06/19 04:17:25;;;;;;;15.57;10.00;;;20.10;99.90;;;;;;7302957;19;20195;-78
2023/06/19 04:19:51;;;;;;;18.47;10.50;;;20.10;99.90;;;;;;7302687;19;20707;-80
2023/06/19 04:22:19;;;;;;;14.83;10.03;;;20.10;99.90;;;;;;7288372;19;20299;-80
2023/06/19 04:24:44;;;;;;;17.23;10.60;;;20.10;99.90;;;;;;7289337;19;21795;-80
2023/06/19 04:27:10;;;;;;;17.47;10.07;;;20.20;99.90;;;;;;7287409;19;20710;-80
2023/06/19 04:29:37;;;;;;;19.00;10.63;;;20.30;99.90;;;;;;7287892;19;20192;-81
2023/06/19 04:32:10;;;;;;;18.30;10.17;;;20.50;99.90;;;;;;7288186;19;20195;-80
2023/06/19 04:34:38;;;;;;;15.43;9.60;;;20.70;99.90;;;;;;7288557;19;20188;-80
2023/06/19 04:37:04;;;;;;;13.30;8.77;;;20.90;99.90;;;;;;7286185;19;20245;-81
2023/06/19 04:39:29;;;;;;;17.47;8.13;;;21.50;99.90;;;;;;7286690;19;20183;-79
2023/06/19 04:41:55;;;;;;;13.90;8.43;;;21.90;99.90;;;;;;7304595;19;20544;-81
2023/06/19 04:44:21;;;;;;;16.17;7.60;;;22.50;99.90;;;;;;7298917;19;20177;-80
2023/06/19 04:46:47;;;;;;;15.13;8.57;;;23.00;99.90;;;;;;7285814;19;20222;-80
2023/06/19 04:49:13;;;;;;;11.67;7.10;;;23.30;99.90;;;;;;7287052;19;20655;-80
2023/06/19 04:51:40;;;;;;;13.67;7.63;;;23.50;99.90;;;;;;7286309;19;20204;-80
2023/06/19 04:54:06;;;;;;;14.67;7.87;;;23.90;99.90;;;;;;7285199;19;20181;-80
2023/06/19 04:56:32;;;;;;;12.93;7.40;;;24.40;99.90;;;;;;7284457;19;20228;-78
2023/06/19 04:58:59;;;;;;;13.93;7.57;;;25.00;99.90;;;;;;7284959;19;20185;-79
2023/06/19 05:01:30;;;;;;;17.00;8.48;;;25.30;99.90;;;;;;7307491;19;20272;-78
2023/06/19 05:03:56;;;;;;;12.40;7.37;;;25.40;99.90;;;;;;7305252;19;20218;-78
2023/06/19 05:06:25;;;;;;;13.15;6.95;;;26.00;99.90;;;;;;7302444;19;20256;-78
2023/06/19 05:08:52;;;;;;;13.43;7.50;;;26.90;99.90;;;;;;7285585;19;20220;-77
2023/06/19 05:11:18;;;;;;;13.52;8.10;;;27.20;99.90;;;;;;7285819;19;20192;-78
2023/06/19 05:13:43;;;;;;;14.32;7.70;;;27.00;99.90;;;;;;7285918;19;20201;-78
2023/06/19 05:16:09;;;;;;;12.50;7.22;;;27.00;99.90;;;;;;7285020;19;20223;-77
2023/06/19 05:18:37;;;;;;;13.50;8.00;;;27.40;99.90;;;;;;7283739;19;20189;-78
2023/06/19 05:21:02;;;;;;;11.45;7.35;;;28.00;99.90;;;;;;7282963;19;20187;-77
2023/06/19 05:23:28;;;;;;;13.60;8.52;;;27.20;99.90;;;;;;7283091;19;20275;-77
2023/06/19 05:25:54;;;;;;;16.50;9.40;;;26.40;99.90;;;;;;7305917;19;20197;-77
2023/06/19 05:28:19;;;;;;;14.52;9.40;;;25.60;99.90;;;;;;7284618;19;20200;-79
2023/06/19 05:30:45;;;;;;;14.52;9.15;;;24.80;99.90;;;;;;7286720;19;20201;-80
2023/06/19 05:33:15;;;;;;;16.03;9.90;;;24.00;99.90;;;;;;7285853;19;20740;-79
2023/06/19 05:35:42;;;;;;;14.67;9.70;;;23.40;99.90;;;;;;7285943;19;20189;-77
2023/06/19 05:38:08;;;;;;;18.00;10.80;;;22.70;99.90;;;;;;7286778;19;20185;-78
2023/06/19 05:40:34;;;;;;;15.10;10.70;;;22.40;99.90;;;;;;7286838;19;20181;-78
2023/06/19 05:43:00;;;;;;;16.33;11.03;;;22.10;99.90;;;;;;7286427;19;20189;-78
2023/06/19 05:45:26;;;;;;;17.17;10.30;;;21.70;99.90;;;;;;7302764;19;20185;-79
2023/06/19 05:47:52;;;;;;;18.00;10.87;;;21.50;99.90;;;;;;7306396;19;20684;-78
2023/06/19 05:50:18;;;;;;;19.97;11.27;;;21.40;99.90;;;;;;7284168;19;20256;-77
2023/06/19 05:52:43;;;;;;;18.23;11.87;;;21.30;99.90;;;;;;7284203;19;20188;-78
2023/06/19 05:55:10;;;;;;;19.70;11.70;;;21.10;99.90;;;;;;7283601;19;20226;-78
2023/06/19 05:57:36;;;;;;;19.47;12.37;;;20.90;99.90;;;;;;7282660;19;20203;-78
2023/06/19 06:00:03;;;;;;;19.50;13.07;;;20.80;99.90;;;;;;7283734;19;20196;-77
2023/06/19 06:02:38;;;;;;;20.63;14.00;;;20.90;99.90;;;;;;7284403;19;20192;-78
2023/06/19 06:05:04;;;;;;;21.53;15.10;;;20.90;99.90;;;;;;7284863;19;20648;-78
2023/06/19 06:07:30;;;;;;;23.07;15.37;;;20.80;99.90;;;;;;7283584;19;20202;-78
2023/06/19 06:09:56;;;;;;;24.57;15.00;;;20.70;99.90;;;;;;7302522;19;20197;-77
2023/06/19 06:12:21;;;;;;;24.93;16.33;;;20.90;99.90;;;;;;7294696;19;20191;-77
2023/06/19 06:14:47;;;;;;;23.60;16.37;;;21.00;99.90;;;;;;7284450;19;20184;-77
2023/06/19 06:17:12;;;;;;;24.23;15.87;;;21.10;99.90;;;;;;7283535;19;20200;-78
2023/06/19 06:19:38;;;;;;;20.67;14.23;;;21.20;99.90;;;;;;7284328;19;20221;-78
2023/06/19 06:22:04;;;;;;;21.33;13.20;;;21.30;99.90;;;;;;7284983;19;20210;-77
2023/06/19 06:24:30;;;;;;;19.87;12.60;;;21.50;99.90;;;;;;7283202;19;20184;-79
2023/06/19 06:26:56;;;;;;;16.47;12.43;;;21.50;99.90;;;;;;7300643;19;20253;-78
2023/06/19 06:29:22;;;;;;;19.50;12.70;;;21.60;99.90;;;;;;7299645;19;20188;-78
2023/06/19 06:31:47;;;;;;;20.63;12.53;;;21.50;99.90;;;;;;7285410;19;20200;-77
2023/06/19 06:34:13;;;;;;;17.63;12.47;;;21.30;99.90;;;;;;7284201;19;20188;-78
2023/06/19 06:36:39;;;;;;;21.10;12.40;;;21.00;99.90;;;;;;7282234;19;20188;-77
2023/06/19 06:39:05;;;;;;;21.63;12.60;;;21.00;99.90;;;;;;7282379;19;20207;-77
2023/06/19 06:41:32;;;;;;;17.27;12.37;;;21.10;99.90;;;;;;7283162;19;20189;-77
2023/06/19 06:43:57;;;;;;;18.23;12.73;;;21.20;99.90;;;;;;7286237;19;20192;-77
2023/06/19 06:46:23;;;;;;;20.90;12.73;;;21.40;99.90;;;;;;7305469;19;20180;-78
2023/06/19 06:48:50;;;;;;;17.80;11.67;;;21.80;99.90;;;;;;7284302;19;20297;-77
2023/06/19 06:51:15;;;;;;;17.63;11.93;;;22.20;99.90;;;;;;7282851;19;20193;-78
2023/06/19 06:53:41;;;;;;;18.93;13.00;;;22.30;99.90;;;;;;7281157;19;20206;-77
2023/06/19 06:56:07;;;;;;;17.93;11.20;;;22.80;99.90;;;;;;7282642;19;20651;-77
2023/06/19 06:58:32;;;;;;;17.87;10.57;;;23.70;99.90;;;;;;7281191;19;20223;-77
2023/06/19 07:00:58;;;;;;;14.30;9.48;;;24.80;99.90;;;;;;7282279;19;20524;-77
2023/06/19 07:03:24;;;;;;;14.63;9.00;;;25.20;99.90;;;;;;7304428;19;20232;-77
2023/06/19 07:05:49;;;;;;;15.40;9.27;;;25.00;99.90;;;;;;7282722;19;20260;-78
2023/06/19 07:08:15;;;;;;;15.02;9.32;;;25.00;99.90;;;;;;7283813;19;20260;-78
2023/06/19 07:10:41;;;;;;;14.65;8.68;;;25.20;99.90;;;;;;7283000;19;20185;-78
2023/06/19 07:13:07;;;;;;;14.43;8.40;;;25.40;99.90;;;;;;7281285;19;20207;-78
2023/06/19 07:15:32;;;;;;;17.02;9.77;;;25.50;99.90;;;;;;7281872;19;20185;-77
2023/06/19 07:17:58;;;;;;;13.77;8.70;;;25.10;99.90;;;;;;7282293;19;20176;-77
2023/06/19 07:20:24;;;;;;;16.95;9.25;;;25.20;99.90;;;;;;7304160;19;20196;-78
2023/06/19 07:22:52;;;;;;;14.15;9.23;;;24.90;99.90;;;;;;7281336;19;20181;-77
2023/06/19 07:25:18;;;;;;;17.40;9.93;;;24.60;99.90;;;;;;7281872;19;20920;-78
2023/06/19 07:27:43;;;;;;;17.98;9.73;;;24.90;99.90;;;;;;7281639;19;20184;-77
2023/06/19 07:30:10;;;;;;;16.52;9.45;;;25.40;99.90;;;;;;7281613;19;20209;-77
2023/06/19 07:32:37;;;;;;;15.43;9.63;;;25.50;99.90;;;;;;7283326;19;20772;-78
2023/06/19 07:35:03;;;;;;;17.63;10.15;;;25.60;99.90;;;;;;7280661;19;20687;-78
2023/06/19 07:37:29;;;;;;;14.25;9.52;;;25.70;99.90;;;;;;7282453;19;20554;-79
2023/06/19 07:39:55;;;;;;;21.23;9.90;;;25.30;99.90;;;;;;7304232;19;20185;-78
2023/06/19 07:42:21;;;;;;;19.15;9.18;;;25.10;99.90;;;;;;7280841;19;20189;-78
2023/06/19 07:44:47;;;;;;;16.67;9.40;;;25.00;99.90;;;;;;7280621;19;20223;-78
2023/06/19 07:47:13;;;;;;;16.13;9.23;;;25.00;99.90;;;;;;7280425;19;20189;-78
2023/06/19 07:49:39;;;;;;;13.70;8.77;;;25.50;99.90;;;;;;7280615;19;20537;-77
2023/06/19 07:52:05;;;;;;;17.27;9.40;;;25.60;99.90;;;;;;7281860;19;20185;-79
2023/06/19 07:54:33;;;;;;;14.27;8.55;;;25.90;99.90;;;;;;7280233;19;20185;-78
2023/06/19 07:56:59;;;;;;;15.35;9.07;;;26.00;99.90;;;;;;7279567;19;20205;-78
2023/06/19 07:59:25;;;;;;;14.10;7.88;;;26.40;99.90;;;;;;7302508;19;20302;-78
2023/06/19 08:01:50;;;;;;;14.10;8.88;;;26.80;99.90;;;;;;7280560;19;20201;-77
2023/06/19 08:04:16;;;;;;;15.68;8.70;;;27.00;99.90;;;;;;7280365;19;20202;-77
2023/06/19 08:06:41;;;;;;;13.70;7.55;;;26.80;99.90;;;;;;7279857;19;20200;-77
2023/06/19 08:09:07;;;;;;;15.75;7.82;;;27.80;99.90;;;;;;7277512;19;20631;-78
2023/06/19 08:11:33;;;;;;;16.67;8.50;;;28.60;99.90;;;;;;7280115;19;20191;-78
2023/06/19 08:14:01;;;;;;;17.20;8.60;;;27.90;99.90;;;;;;7279611;19;20197;-78
2023/06/19 08:16:26;;;;;;;14.80;8.90;;;27.70;99.90;;;;;;7294479;19;20547;-77
2023/06/19 08:18:52;;;;;;;14.60;8.93;;;27.90;99.90;;;;;;7295405;19;20185;-77
2023/06/19 08:21:20;;;;;;;16.35;10.30;;;28.80;99.90;;;;;;7280928;19;20209;-78
2023/06/19 08:23:45;;;;;;;15.93;9.48;;;27.70;99.90;;;;;;7279134;19;22137;-77
2023/06/19 08:26:11;;;;;;;14.18;9.60;;;28.50;99.90;;;;;;7280380;19;20188;-77
2023/06/19 08:28:37;;;;;;;16.63;9.30;;;29.00;99.90;;;;;;7279421;19;20185;-78
2023/06/19 08:31:03;;;;;;;13.80;7.78;;;29.00;99.90;;;;;;7279806;19;20192;-78
2023/06/19 08:33:30;;;;;;;14.98;8.63;;;30.20;99.90;;;;;;7279111;19;20193;-78
2023/06/19 08:35:55;;;;;;;12.65;8.60;;;30.00;99.90;;;;;;7301239;19;20260;-78
2023/06/19 08:38:21;;;;;;;16.50;8.55;;;30.20;99.90;;;;;;7280187;19;20177;-78
2023/06/19 08:40:47;;;;;;;11.95;7.78;;;30.10;99.90;;;;;;7280930;19;20242;-78
2023/06/19 08:43:13;;;;;;;13.05;7.32;;;29.40;99.90;;;;;;7279777;19;20214;-78
2023/06/19 08:45:40;;;;;;;12.25;7.13;;;30.20;99.90;;;;;;7279504;19;20181;-78
2023/06/19 08:48:08;;;;;;;12.90;6.97;;;30.80;99.90;;;;;;7280703;19;20267;-78
2023/06/19 08:50:38;;;;;;;10.60;6.72;;;31.40;99.90;;;;;;7278716;19;20184;-78
2023/06/19 08:53:04;;;;;;;14.27;8.57;;;33.10;99.90;;;;;;7279056;19;20196;-78
2023/06/19 08:55:30;;;;;;;14.65;7.68;;;32.90;99.90;;;;;;7278753;19;20208;-78
2023/06/19 08:57:55;;;;;;;13.20;7.10;;;33.10;99.90;;;;;;7299431;19;20583;-78
2023/06/19 09:00:26;;;;;;;15.68;8.13;;;33.70;99.90;;;;;;7284718;19;20185;-78
2023/06/19 09:02:57;;;;;;;14.02;8.07;;;32.60;98.80;;;;;;7285164;19;20530;-78
2023/06/19 09:05:25;;;;;;;13.57;7.90;;;31.30;99.90;;;;;;7284881;19;20561;-78
2023/06/19 09:07:56;;;;;;;14.57;7.75;;;31.70;99.90;;;;;;7284389;19;20201;-78
2023/06/19 09:10:23;;;;;;;13.25;7.78;;;32.50;99.80;;;;;;7286544;19;20188;-78
2023/06/19 09:13:03;;;;;;;14.15;8.05;;;33.60;99.10;;;;;;7285159;19;20209;-78
2023/06/19 09:15:36;;;;;;;12.35;7.55;;;34.30;98.00;;;;;;7261204;19;20199;-78
2023/06/19 09:18:12;;;;;;;16.48;8.43;;;34.90;96.70;;;;;;7282466;19;20193;-77
2023/06/19 09:20:47;;;;;;;15.48;8.90;;;35.00;94.40;;;;;;7284225;19;20247;-78
2023/06/19 09:23:17;;;;;;;13.25;8.60;;;35.10;92.90;;;;;;7285030;19;20192;-77
2023/06/19 09:25:51;;;;;;;17.52;10.10;;;33.80;93.50;;;;;;7284805;19;20215;-78
2023/06/19 09:28:18;;;;;;;16.20;9.35;;;33.00;93.70;;;;;;7285418;19;20205;-78
2023/06/19 09:31:02;;;;;;;17.58;9.73;;;31.30;95.90;;;;;;7284181;19;20199;-77
2023/06/19 09:33:33;;;;;;;13.05;9.00;;;30.00;98.00;;;;;;7263206;19;20304;-77
2023/06/19 09:36:00;;;;;;;15.02;9.60;;;29.80;99.90;;;;;;7284319;19;20721;-77
2023/06/19 09:38:27;;;;;;;15.68;10.05;;;29.70;99.90;;;;;;7306794;19;20189;-78
2023/06/19 09:40:54;;;;;;;16.02;9.10;;;29.80;99.90;;;;;;7286414;19;20189;-79
2023/06/19 09:43:24;;;;;;;16.98;9.65;;;30.10;99.90;;;;;;7285391;19;20188;-77
2023/06/19 09:45:50;;;;;;;16.80;9.93;;;29.30;99.90;;;;;;7285196;19;20188;-79
2023/06/19 09:48:20;;;;;;;15.73;10.10;;;28.40;99.90;;;;;;7286221;19;20188;-78
2023/06/19 09:50:56;;;;;;;16.17;9.32;;;28.90;99.90;;;;;;7284082;19;20600;-76
2023/06/19 09:53:23;;;;;;;20.00;10.60;;;29.80;99.90;;;;;;7284897;19;20193;-77
2023/06/19 09:55:52;;;;;;;17.75;9.35;;;30.40;99.90;;;;;;7285318;19;20640;-77
2023/06/19 09:58:20;;;;;;;18.88;9.65;;;29.90;99.90;;;;;;7283267;19;20197;-77
2023/06/19 10:00:47;;;;;;;15.18;9.02;;;29.60;99.90;;;;;;7284663;19;20300;-77
2023/06/19 10:03:14;;;;;;;18.67;10.45;;;29.30;99.90;;;;;;7283400;19;20185;-77
2023/06/19 10:05:40;;;;;;;16.00;9.27;;;29.60;99.90;;;;;;7283990;19;20573;-77
2023/06/19 10:08:06;;;;;;;15.57;8.93;;;31.40;99.90;;;;;;7284275;19;20193;-78
2023/06/19 10:10:34;;;;;;;16.80;9.10;;;33.10;98.40;;;;;;7283801;19;20204;-77
2023/06/19 10:13:11;;;;;;;16.00;8.85;;;33.60;96.80;;;;;;7284053;19;20671;-77
2023/06/19 10:15:44;;;;;;;19.75;8.25;;;35.00;93.70;;;;;;7283550;19;20195;-77
2023/06/19 10:18:17;;;;;;;18.00;9.27;;;35.10;93.00;;;;;;7282404;19;20208;-78
2023/06/19 10:20:46;;;;;;;15.48;9.93;;;34.50;92.20;;;;;;7284628;19;20197;-78
2023/06/19 10:23:23;;;;;;;13.30;8.77;;;33.80;92.10;;;;;;7282638;19;20201;-78
2023/06/19 10:25:56;;;;;;;17.25;9.70;;;33.60;93.60;;;;;;7283629;19;20908;-78
2023/06/19 10:28:32;;;;;;;18.70;11.65;;;35.60;92.60;;;;;;7283036;19;20201;-77
2023/06/19 10:31:08;;;;;;;17.58;9.98;;;35.50;90.10;;;;;;7268067;19;20199;-78
2023/06/19 10:33:40;;;;;;;16.15;9.63;;;34.10;90.70;;;;;;7282639;19;20562;-78
2023/06/19 10:36:19;;;;;;;17.10;9.50;;;34.50;90.40;;;;;;7284661;19;20208;-78
2023/06/19 10:38:49;;;;;;;14.93;8.73;;;34.00;91.10;;;;;;7281308;19;20525;-78
2023/06/19 10:41:19;;;;;;;15.20;8.55;;;33.50;91.10;;;;;;7281431;19;20261;-78
2023/06/19 10:44:05;;;;;;;15.50;8.70;;;33.80;90.20;;;;;;7283923;19;20655;-78
2023/06/19 10:46:38;;;;;;;13.65;7.70;;;33.80;90.80;;;;;;7262617;19;20300;-78
2023/06/19 10:49:05;;;;;;;14.10;7.90;;;34.10;90.50;;;;;;7282649;19;20189;-78
2023/06/19 10:51:34;;;;;;;12.70;6.68;;;34.60;90.20;;;;;;7281849;19;20201;-76
2023/06/19 10:54:00;;;;;;;11.02;6.35;;;35.60;88.10;;;;;;7281949;19;20181;-78
2023/06/19 10:56:26;;;;;;;10.20;5.70;;;36.30;86.40;;;;;;7302188;19;20192;-77
2023/06/19 10:59:02;;;;;;;13.57;6.20;;;37.30;82.70;;;;;;7283084;19;20188;-78
2023/06/19 11:01:35;;;;;;;13.10;5.95;;;37.20;80.90;;;;;;7269173;19;20204;-78
2023/06/19 11:04:03;;;;;;;12.02;5.63;;;37.50;79.40;;;;;;7283458;19;20249;-78
2023/06/19 11:06:29;;;;;;;10.48;5.28;;;37.90;75.70;;;;;;7283114;19;20426;-78
2023/06/19 11:08:57;;;;;;;10.88;5.55;;;38.70;75.00;;;;;;7292515;19;20214;-78
2023/06/19 11:11:23;;;;;;;12.10;5.70;;;38.90;72.70;;;;;;7299602;19;20188;-77
2023/06/19 11:13:49;;;;;;;11.90;6.05;;;39.60;71.00;;;;;;7282396;19;20189;-77
2023/06/19 11:16:14;;;;;;;10.45;5.97;;;40.00;71.10;;;;;;7281003;19;20189;-78
2023/06/19 11:18:40;;;;;;;11.60;5.45;;;39.30;68.00;;;;;;7282849;19;20184;-78
2023/06/19 11:21:06;;;;;;;12.25;5.90;;;39.50;71.00;;;;;;7280918;19;20181;-78
2023/06/19 11:23:32;;;;;;;10.73;6.13;;;39.60;67.10;;;;;;7280516;19;20181;-78
2023/06/19 11:26:07;;;;;;;14.45;6.80;;;39.30;68.50;;;;;;7293595;19;20184;-79
2023/06/19 11:28:32;;;;;;;17.85;7.40;;;39.50;66.80;;;;;;7280721;19;20284;-78
2023/06/19 11:31:03;;;;;;;10.10;5.55;;;38.20;67.40;;;;;;7281784;19;20211;-77
2023/06/19 11:33:30;;;;;;;9.85;5.75;;;38.20;68.40;;;;;;7281683;19;20514;-78
2023/06/19 11:36:00;;;;;;;12.75;6.20;;;38.30;65.70;;;;;;7302964;19;20771;-77
2023/06/19 11:38:27;;;;;;;9.93;5.80;;;38.80;64.90;;;;;;7281401;19;20191;-77
2023/06/19 11:40:54;;;;;;;11.18;6.05;;;38.60;63.10;;;;;;7281508;19;20976;-77
2023/06/19 11:43:31;;;;;;;13.38;6.15;;;38.50;63.90;;;;;;7281557;19;20181;-77
2023/06/19 11:46:06;;;;;;;12.23;6.10;;;38.80;64.30;;;;;;7267914;19;20276;-78
2023/06/19 11:48:32;;;;;;;8.77;5.43;;;39.20;59.60;;;;;;7281130;19;20218;-77
2023/06/19 11:50:58;;;;;;;8.88;5.38;;;39.30;56.90;;;;;;7288910;19;20285;-77
2023/06/19 11:53:25;;;;;;;8.05;5.18;;;40.10;58.50;;;;;;7302757;19;20176;-77
2023/06/19 11:55:51;;;;;;;9.98;5.18;;;38.60;56.50;;;;;;7281077;19;20188;-78
2023/06/19 11:58:20;;;;;;;10.48;5.28;;;38.40;60.30;;;;;;7281617;19;20209;-78
2023/06/19 12:00:46;;;;;;;10.68;5.35;;;38.60;59.40;;;;;;7279413;19;20200;-78
2023/06/19 12:03:11;;;;;;;9.82;5.68;;;38.50;63.30;;;;;;7279766;19;20196;-78
2023/06/19 12:05:38;;;;;;;11.27;5.47;;;37.10;58.90;;;;;;7280722;19;20193;-77
2023/06/19 12:08:04;;;;;;;11.52;5.80;;;35.30;59.70;;;;;;7280262;19;20202;-77
2023/06/19 12:10:30;;;;;;;10.35;5.55;;;34.20;64.20;;;;;;7281449;19;20205;-78
2023/06/19 12:12:56;;;;;;;12.73;6.22;;;33.40;67.10;;;;;;7302540;19;20212;-78
2023/06/19 12:15:22;;;;;;;12.32;5.97;;;33.10;67.80;;;;;;7281052;19;20553;-78
2023/06/19 12:17:48;;;;;;;11.15;5.72;;;31.90;68.40;;;;;;7280055;19;20245;-78
2023/06/19 12:20:14;;;;;;;10.15;5.50;;;30.70;69.00;;;;;;7279672;19;20654;-78
2023/06/19 12:22:40;;;;;;;11.48;5.68;;;30.40;68.60;;;;;;7279986;19;20636;-77
2023/06/19 12:25:05;;;;;;;11.02;5.20;;;29.70;73.90;;;;;;7279955;19;20252;-77
2023/06/19 12:27:31;;;;;;;14.65;5.95;;;29.90;75.90;;;;;;7280539;19;20226;-78
2023/06/19 12:29:57;;;;;;;13.85;5.43;;;29.80;74.70;;;;;;7294255;19;20281;-78
2023/06/19 12:32:23;;;;;;;27.90;7.20;;;29.70;76.20;;;;;;7295942;19;20970;-78
2023/06/19 12:34:53;;;;;;;11.80;5.30;;;29.90;78.50;;;;;;7284107;19;20188;-78
2023/06/19 12:37:20;;;;;;;13.27;5.43;;;30.20;77.80;;;;;;7285778;19;20637;-77